sensor_id;sensor_type;location;lat;lon;timestamp;temperature;humidity
5154;DHT22;2595;53.584;10.084;2022-08-20T00:02:02;20.30;99.90
5154;DHT22;2595;53.584;10.084;2022-08-20T00:04:27;20.40;99.90
5154;DHT22;2595;53.584;10.084;2022-08-20T00:06:53;20.30;99.90
5154;DHT22;2595;53.584;10.084;2022-08-20T00:09:19;20.30;99.90
5154;DHT22;2595;53.584;10.084;2022-08-20T00:11:44;20.30;99.90
5154;DHT22;2595;53.584;10.084;2022-08-20T00:14:10;20.40;99.90
5154;DHT22;2595;53.584;10.084;2022-08-20T00:16:36;20.40;99.90
5154;DHT22;2595;53.584;10.084;2022-08-20T00:19:04;20.50;99.90
5154;DHT22;2595;53.584;10.084;2022-08-20T00:21:30;20.50;99.90
5154;DHT22;2595;53.584;10.084;2022-08-20T00:23:56;20.50;99.90
5154;DHT22;2595;53.584;10.084;2022-08-20T00:26:22;20.50;99.90
5154;DHT22;2595;53.584;10.084;2022-08-20T00:28:48;20.50;99.90
5154;DHT22;2595;53.584;10.084;2022-08-20T00:31:17;20.50;99.90
5154;DHT22;2595;53.584;10.084;2022-08-20T00:33:46;20.50;99.90
5154;DHT22;2595;53.584;10.084;2022-08-20T00:36:12;20.50;99.90
5154;DHT22;2595;53.584;10.084;2022-08-20T00:38:42;20.50;99.90
5154;DHT22;2595;53.584;10.084;2022-08-20T00:41:12;20.50;99.90
5154;DHT22;2595;53.584;10.084;2022-08-20T00:43:45;20.50;99.90
5154;DHT22;2595;53.584;10.084;2022-08-20T00:46:18;20.40;99.90
5154;DHT22;2595;53.584;10.084;2022-08-20T00:48:47;20.50;99.90
5154;DHT22;2595;53.584;10.084;2022-08-20T00:53:43;20.50;99.90
5154;DHT22;2595;53.584;10.084;2022-08-20T00:56:10;20.50;99.90
5154;DHT22;2595;53.584;10.084;2022-08-20T00:58:38;20.50;99.90
5154;DHT22;2595;53.584;10.084;2022-08-20T01:01:06;20.50;99.90
5154;DHT22;2595;53.584;10.084;2022-08-20T01:03:32;20.50;99.90
5154;DHT22;2595;53.584;10.084;2022-08-20T01:05:58;20.50;99.90
5154;DHT22;2595;53.584;10.084;2022-08-20T01:08:24;20.50;99.90
5154;DHT22;2595;53.584;10.084;2022-08-20T01:10:51;20.50;99.90
5154;DHT22;2595;53.584;10.084;2022-08-20T01:13:27;20.50;99.90
5154;DHT22;2595;53.584;10.084;2022-08-20T01:15:54;20.40;99.90
5154;DHT22;2595;53.584;10.084;2022-08-20T01:18:25;20.50;99.90
5154;DHT22;2595;53.584;10.084;2022-08-20T01:20:55;20.50;99.90
5154;DHT22;2595;53.584;10.084;2022-08-20T01:23:40;20.50;99.90
5154;DHT22;2595;53.584;10.084;2022-08-20T01:31:05;20.50;99.90
5154;DHT22;2595;53.584;10.084;2022-08-20T01:33:31;20.40;99.90
5154;DHT22;2595;53.584;10.084;2022-08-20T01:35:57;20.40;99.90
5154;DHT22;2595;53.584;10.084;2022-08-20T01:38:23;20.40;99.90
5154;DHT22;2595;53.584;10.084;2022-08-20T01:43:50;20.40;99.90
5154;DHT22;2595;53.584;10.084;2022-08-20T01:46:22;20.30;99.90
5154;DHT22;2595;53.584;10.084;2022-08-20T01:48:48;20.40;99.90
5154;DHT22;2595;53.584;10.084;2022-08-20T01:51:17;20.40;99.90
5154;DHT22;2595;53.584;10.084;2022-08-20T01:53:47;20.40;99.90
5154;DHT22;2595;53.584;10.084;2022-08-20T01:56:18;20.40;99.90
5154;DHT22;2595;53.584;10.084;2022-08-20T01:58:47;20.40;99.90
5154;DHT22;2595;53.584;10.084;2022-08-20T02:01:46;20.40;99.90
5154;DHT22;2595;53.584;10.084;2022-08-20T02:04:13;20.30;99.90
5154;DHT22;2595;53.584;10.084;2022-08-20T02:06:41;20.20;99.90
5154;DHT22;2595;53.584;10.084;2022-08-20T02:09:08;20.30;99.90
5154;DHT22;2595;53.584;10.084;2022-08-20T02:11:35;20.20;99.90
5154;DHT22;2595;53.584;10.084;2022-08-20T02:14:02;20.30;99.90
5154;DHT22;2595;53.584;10.084;2022-08-20T02:16:32;20.30;99.90
5154;DHT22;2595;53.584;10.084;2022-08-20T02:19:19;20.20;99.90
5154;DHT22;2595;53.584;10.084;2022-08-20T02:21:50;20.20;99.90
5154;DHT22;2595;53.584;10.084;2022-08-20T02:24:18;20.20;99.90
5154;DHT22;2595;53.584;10.084;2022-08-20T02:26:44;20.30;99.90
5154;DHT22;2595;53.584;10.084;2022-08-20T02:29:11;20.30;99.90
5154;DHT22;2595;53.584;10.084;2022-08-20T02:31:39;20.20;99.90
5154;DHT22;2595;53.584;10.084;2022-08-20T02:34:06;20.20;99.90
5154;DHT22;2595;53.584;10.084;2022-08-20T02:36:34;20.20;99.90
5154;DHT22;2595;53.584;10.084;2022-08-20T02:39:07;20.10;99.90
5154;DHT22;2595;53.584;10.084;2022-08-20T02:41:34;20.20;99.90
5154;DHT22;2595;53.584;10.084;2022-08-20T02:44:00;20.20;99.90
5154;DHT22;2595;53.584;10.084;2022-08-20T02:46:25;20.20;99.90
5154;DHT22;2595;53.584;10.084;2022-08-20T02:48:55;20.20;99.90
5154;DHT22;2595;53.584;10.084;2022-08-20T02:51:21;20.20;99.90
5154;DHT22;2595;53.584;10.084;2022-08-20T02:53:47;20.10;99.90
5154;DHT22;2595;53.584;10.084;2022-08-20T02:56:13;20.10;99.90
5154;DHT22;2595;53.584;10.084;2022-08-20T02:58:40;20.10;99.90
5154;DHT22;2595;53.584;10.084;2022-08-20T03:01:07;20.10;99.90
5154;DHT22;2595;53.584;10.084;2022-08-20T03:03:33;20.00;99.90
5154;DHT22;2595;53.584;10.084;2022-08-20T03:05:59;20.10;99.90
5154;DHT22;2595;53.584;10.084;2022-08-20T03:08:26;20.10;99.90
5154;DHT22;2595;53.584;10.084;2022-08-20T03:10:54;20.10;99.90
5154;DHT22;2595;53.584;10.084;2022-08-20T03:13:20;20.10;99.90
5154;DHT22;2595;53.584;10.084;2022-08-20T03:15:50;20.00;99.90
5154;DHT22;2595;53.584;10.084;2022-08-20T03:18:17;20.00;99.90
5154;DHT22;2595;53.584;10.084;2022-08-20T03:20:45;20.00;99.90
5154;DHT22;2595;53.584;10.084;2022-08-20T03:23:11;20.00;99.90
5154;DHT22;2595;53.584;10.084;2022-08-20T03:25:37;20.00;99.90
5154;DHT22;2595;53.584;10.084;2022-08-20T03:28:03;20.00;99.90
5154;DHT22;2595;53.584;10.084;2022-08-20T03:30:29;20.00;99.90
5154;DHT22;2595;53.584;10.084;2022-08-20T03:32:55;20.00;99.90
5154;DHT22;2595;53.584;10.084;2022-08-20T03:35:25;20.10;99.90
5154;DHT22;2595;53.584;10.084;2022-08-20T03:37:51;20.00;99.90
5154;DHT22;2595;53.584;10.084;2022-08-20T03:40:36;20.00;99.90
5154;DHT22;2595;53.584;10.084;2022-08-20T03:43:03;20.00;99.90
5154;DHT22;2595;53.584;10.084;2022-08-20T03:45:29;20.00;99.90
5154;DHT22;2595;53.584;10.084;2022-08-20T03:47:57;20.00;99.90
5154;DHT22;2595;53.584;10.084;2022-08-20T03:50:26;19.90;99.90
5154;DHT22;2595;53.584;10.084;2022-08-20T03:52:53;19.90;99.90
5154;DHT22;2595;53.584;10.084;2022-08-20T03:55:20;20.10;99.90
5154;DHT22;2595;53.584;10.084;2022-08-20T03:57:51;20.00;99.90
5154;DHT22;2595;53.584;10.084;2022-08-20T04:00:21;20.10;99.90
5154;DHT22;2595;53.584;10.084;2022-08-20T04:02:47;20.10;99.90
5154;DHT22;2595;53.584;10.084;2022-08-20T04:05:13;20.10;99.90
5154;DHT22;2595;53.584;10.084;2022-08-20T04:07:39;20.10;99.90
5154;DHT22;2595;53.584;10.084;2022-08-20T04:10:09;20.20;99.90
5154;DHT22;2595;53.584;10.084;2022-08-20T04:12:35;20.10;99.90
5154;DHT22;2595;53.584;10.084;2022-08-20T04:15:07;20.20;99.90
5154;DHT22;2595;53.584;10.084;2022-08-20T04:17:33;20.20;99.90
5154;DHT22;2595;53.584;10.084;2022-08-20T04:20:02;20.30;99.90
5154;DHT22;2595;53.584;10.084;2022-08-20T04:22:28;20.30;99.90
5154;DHT22;2595;53.584;10.084;2022-08-20T04:24:54;20.30;99.90
5154;DHT22;2595;53.584;10.084;2022-08-20T04:27:20;20.40;99.90
5154;DHT22;2595;53.584;10.084;2022-08-20T04:29:45;20.30;99.90
5154;DHT22;2595;53.584;10.084;2022-08-20T04:32:11;20.40;99.90
5154;DHT22;2595;53.584;10.084;2022-08-20T04:34:37;20.40;99.90
5154;DHT22;2595;53.584;10.084;2022-08-20T04:37:04;20.50;99.90
5154;DHT22;2595;53.584;10.084;2022-08-20T04:39:30;20.50;99.90
5154;DHT22;2595;53.584;10.084;2022-08-20T04:41:55;20.50;99.90
5154;DHT22;2595;53.584;10.084;2022-08-20T04:44:21;20.50;99.90
5154;DHT22;2595;53.584;10.084;2022-08-20T04:46:47;20.60;99.90
5154;DHT22;2595;53.584;10.084;2022-08-20T04:49:13;20.60;99.90
5154;DHT22;2595;53.584;10.084;2022-08-20T04:51:39;20.60;99.90
5154;DHT22;2595;53.584;10.084;2022-08-20T04:54:05;20.60;99.90
5154;DHT22;2595;53.584;10.084;2022-08-20T04:56:32;20.60;99.90
5154;DHT22;2595;53.584;10.084;2022-08-20T04:59:03;20.60;99.90
5154;DHT22;2595;53.584;10.084;2022-08-20T05:01:29;20.60;99.90
5154;DHT22;2595;53.584;10.084;2022-08-20T05:03:56;20.60;99.90
5154;DHT22;2595;53.584;10.084;2022-08-20T05:06:25;20.60;99.90
5154;DHT22;2595;53.584;10.084;2022-08-20T05:08:52;20.70;99.90
5154;DHT22;2595;53.584;10.084;2022-08-20T05:11:18;20.60;99.90
5154;DHT22;2595;53.584;10.084;2022-08-20T05:13:45;20.70;99.90
5154;DHT22;2595;53.584;10.084;2022-08-20T05:16:11;20.60;99.90
5154;DHT22;2595;53.584;10.084;2022-08-20T05:18:37;20.70;99.90
5154;DHT22;2595;53.584;10.084;2022-08-20T05:21:03;20.70;99.90
5154;DHT22;2595;53.584;10.084;2022-08-20T05:23:33;20.70;99.90
5154;DHT22;2595;53.584;10.084;2022-08-20T05:26:00;20.70;99.90
5154;DHT22;2595;53.584;10.084;2022-08-20T05:28:27;20.60;99.90
5154;DHT22;2595;53.584;10.084;2022-08-20T05:30:58;20.70;99.90
5154;DHT22;2595;53.584;10.084;2022-08-20T05:33:25;20.70;99.90
5154;DHT22;2595;53.584;10.084;2022-08-20T05:35:52;20.70;99.90
5154;DHT22;2595;53.584;10.084;2022-08-20T05:38:21;20.70;99.90
5154;DHT22;2595;53.584;10.084;2022-08-20T05:40:49;20.70;99.90
5154;DHT22;2595;53.584;10.084;2022-08-20T05:43:15;20.70;99.90
5154;DHT22;2595;53.584;10.084;2022-08-20T05:45:42;20.80;99.90
5154;DHT22;2595;53.584;10.084;2022-08-20T05:48:11;20.70;99.90
5154;DHT22;2595;53.584;10.084;2022-08-20T05:50:38;20.80;99.90
5154;DHT22;2595;53.584;10.084;2022-08-20T05:53:04;20.70;99.90
5154;DHT22;2595;53.584;10.084;2022-08-20T05:55:30;20.70;99.90
5154;DHT22;2595;53.584;10.084;2022-08-20T05:58:00;20.70;99.90
5154;DHT22;2595;53.584;10.084;2022-08-20T06:00:27;20.70;99.90
5154;DHT22;2595;53.584;10.084;2022-08-20T06:02:53;20.80;99.90
5154;DHT22;2595;53.584;10.084;2022-08-20T06:05:37;20.80;99.90
5154;DHT22;2595;53.584;10.084;2022-08-20T06:08:05;20.80;99.90
5154;DHT22;2595;53.584;10.084;2022-08-20T06:10:31;20.80;99.90
5154;DHT22;2595;53.584;10.084;2022-08-20T06:12:57;20.80;99.90
5154;DHT22;2595;53.584;10.084;2022-08-20T06:15:22;20.80;99.90
5154;DHT22;2595;53.584;10.084;2022-08-20T06:17:48;20.80;99.90
5154;DHT22;2595;53.584;10.084;2022-08-20T06:20:13;20.80;99.90
5154;DHT22;2595;53.584;10.084;2022-08-20T06:22:39;20.80;99.90
5154;DHT22;2595;53.584;10.084;2022-08-20T06:25:06;20.80;99.90
5154;DHT22;2595;53.584;10.084;2022-08-20T06:27:32;20.80;99.90
5154;DHT22;2595;53.584;10.084;2022-08-20T06:29:58;20.80;99.90
5154;DHT22;2595;53.584;10.084;2022-08-20T06:32:24;20.80;99.90
5154;DHT22;2595;53.584;10.084;2022-08-20T06:34:51;20.80;99.90
5154;DHT22;2595;53.584;10.084;2022-08-20T06:37:25;20.80;99.90
5154;DHT22;2595;53.584;10.084;2022-08-20T06:39:52;20.80;99.90
5154;DHT22;2595;53.584;10.084;2022-08-20T06:42:18;20.80;99.90
5154;DHT22;2595;53.584;10.084;2022-08-20T06:44:45;20.80;99.90
5154;DHT22;2595;53.584;10.084;2022-08-20T06:47:14;20.90;99.90
5154;DHT22;2595;53.584;10.084;2022-08-20T06:49:40;20.80;99.90
5154;DHT22;2595;53.584;10.084;2022-08-20T06:52:05;20.90;99.90
5154;DHT22;2595;53.584;10.084;2022-08-20T06:54:31;20.90;99.90
5154;DHT22;2595;53.584;10.084;2022-08-20T06:56:59;20.90;99.90
5154;DHT22;2595;53.584;10.084;2022-08-20T06:59:24;20.90;99.90
5154;DHT22;2595;53.584;10.084;2022-08-20T07:01:50;20.90;99.90
5154;DHT22;2595;53.584;10.084;2022-08-20T07:04:16;20.90;99.90
5154;DHT22;2595;53.584;10.084;2022-08-20T07:06:42;21.00;99.90
5154;DHT22;2595;53.584;10.084;2022-08-20T07:09:08;21.00;99.90
5154;DHT22;2595;53.584;10.084;2022-08-20T07:11:34;21.10;99.90
5154;DHT22;2595;53.584;10.084;2022-08-20T07:14:00;21.00;99.90
5154;DHT22;2595;53.584;10.084;2022-08-20T07:16:30;21.10;99.90
5154;DHT22;2595;53.584;10.084;2022-08-20T07:18:56;21.10;99.90
5154;DHT22;2595;53.584;10.084;2022-08-20T07:21:23;21.10;99.90
5154;DHT22;2595;53.584;10.084;2022-08-20T07:23:48;21.10;99.90
5154;DHT22;2595;53.584;10.084;2022-08-20T07:26:14;21.20;99.90
5154;DHT22;2595;53.584;10.084;2022-08-20T07:28:40;21.20;99.90
5154;DHT22;2595;53.584;10.084;2022-08-20T07:31:06;21.20;99.90
5154;DHT22;2595;53.584;10.084;2022-08-20T07:33:50;21.20;99.90
5154;DHT22;2595;53.584;10.084;2022-08-20T07:36:16;21.20;99.90
5154;DHT22;2595;53.584;10.084;2022-08-20T07:38:42;21.30;99.90
5154;DHT22;2595;53.584;10.084;2022-08-20T07:41:11;21.30;99.90
5154;DHT22;2595;53.584;10.084;2022-08-20T07:43:40;21.30;99.90
5154;DHT22;2595;53.584;10.084;2022-08-20T07:46:06;21.40;99.90
5154;DHT22;2595;53.584;10.084;2022-08-20T07:48:34;21.40;99.90
5154;DHT22;2595;53.584;10.084;2022-08-20T07:51:02;21.40;99.90
5154;DHT22;2595;53.584;10.084;2022-08-20T07:53:29;21.50;99.90
5154;DHT22;2595;53.584;10.084;2022-08-20T07:55:55;21.50;99.90
5154;DHT22;2595;53.584;10.084;2022-08-20T07:58:22;21.60;99.90
5154;DHT22;2595;53.584;10.084;2022-08-20T08:00:50;21.60;99.90
5154;DHT22;2595;53.584;10.084;2022-08-20T08:03:15;21.60;99.90
5154;DHT22;2595;53.584;10.084;2022-08-20T08:05:45;21.70;99.90
5154;DHT22;2595;53.584;10.084;2022-08-20T08:08:15;21.70;99.90
5154;DHT22;2595;53.584;10.084;2022-08-20T08:10:42;21.70;99.90
5154;DHT22;2595;53.584;10.084;2022-08-20T08:13:09;21.70;99.90
5154;DHT22;2595;53.584;10.084;2022-08-20T08:15:41;21.70;99.90
5154;DHT22;2595;53.584;10.084;2022-08-20T08:18:15;21.70;99.90
5154;DHT22;2595;53.584;10.084;2022-08-20T08:20:42;21.70;99.90
5154;DHT22;2595;53.584;10.084;2022-08-20T08:23:10;21.80;99.90
5154;DHT22;2595;53.584;10.084;2022-08-20T08:25:40;21.80;99.90
5154;DHT22;2595;53.584;10.084;2022-08-20T08:28:10;21.80;99.90
5154;DHT22;2595;53.584;10.084;2022-08-20T08:30:37;21.80;99.90
5154;DHT22;2595;53.584;10.084;2022-08-20T08:33:05;21.90;99.90
5154;DHT22;2595;53.584;10.084;2022-08-20T08:35:49;21.80;99.90
5154;DHT22;2595;53.584;10.084;2022-08-20T08:38:15;21.80;99.90
5154;DHT22;2595;53.584;10.084;2022-08-20T08:40:41;21.80;99.90
5154;DHT22;2595;53.584;10.084;2022-08-20T08:43:10;21.90;99.90
5154;DHT22;2595;53.584;10.084;2022-08-20T08:45:43;21.90;99.90
5154;DHT22;2595;53.584;10.084;2022-08-20T08:48:16;21.90;99.90
5154;DHT22;2595;53.584;10.084;2022-08-20T08:50:46;21.90;99.90
5154;DHT22;2595;53.584;10.084;2022-08-20T08:53:21;21.90;99.90
5154;DHT22;2595;53.584;10.084;2022-08-20T08:55:49;21.90;99.90
5154;DHT22;2595;53.584;10.084;2022-08-20T08:58:14;21.90;99.90
5154;DHT22;2595;53.584;10.084;2022-08-20T09:00:40;22.00;99.90
5154;DHT22;2595;53.584;10.084;2022-08-20T09:03:07;22.00;99.90
5154;DHT22;2595;53.584;10.084;2022-08-20T09:05:45;22.00;99.90
5154;DHT22;2595;53.584;10.084;2022-08-20T09:08:15;22.00;99.90
5154;DHT22;2595;53.584;10.084;2022-08-20T09:10:44;22.10;99.90
5154;DHT22;2595;53.584;10.084;2022-08-20T09:13:10;22.10;99.90
5154;DHT22;2595;53.584;10.084;2022-08-20T09:15:36;22.10;99.90
5154;DHT22;2595;53.584;10.084;2022-08-20T09:18:02;22.10;99.90
5154;DHT22;2595;53.584;10.084;2022-08-20T09:20:28;22.20;99.90
5154;DHT22;2595;53.584;10.084;2022-08-20T09:22:54;22.20;99.90
5154;DHT22;2595;53.584;10.084;2022-08-20T09:25:20;22.20;99.90
5154;DHT22;2595;53.584;10.084;2022-08-20T09:27:46;22.30;99.90
5154;DHT22;2595;53.584;10.084;2022-08-20T09:30:13;22.30;99.90
5154;DHT22;2595;53.584;10.084;2022-08-20T09:32:39;22.30;99.90
5154;DHT22;2595;53.584;10.084;2022-08-20T09:35:06;22.30;99.90
5154;DHT22;2595;53.584;10.084;2022-08-20T09:37:32;22.40;99.90
5154;DHT22;2595;53.584;10.084;2022-08-20T09:39:59;22.40;99.90
5154;DHT22;2595;53.584;10.084;2022-08-20T09:42:27;22.40;99.90
5154;DHT22;2595;53.584;10.084;2022-08-20T09:44:53;22.50;99.90
5154;DHT22;2595;53.584;10.084;2022-08-20T09:47:20;22.40;99.90
5154;DHT22;2595;53.584;10.084;2022-08-20T09:49:46;22.40;99.90
5154;DHT22;2595;53.584;10.084;2022-08-20T09:52:33;22.50;99.90
5154;DHT22;2595;53.584;10.084;2022-08-20T09:55:03;22.50;99.90
5154;DHT22;2595;53.584;10.084;2022-08-20T09:57:29;22.50;99.90
5154;DHT22;2595;53.584;10.084;2022-08-20T09:59:59;22.60;99.90
5154;DHT22;2595;53.584;10.084;2022-08-20T10:02:26;22.60;99.90
5154;DHT22;2595;53.584;10.084;2022-08-20T10:04:52;22.70;99.90
5154;DHT22;2595;53.584;10.084;2022-08-20T10:07:18;22.70;99.90
5154;DHT22;2595;53.584;10.084;2022-08-20T10:09:43;22.70;99.90
5154;DHT22;2595;53.584;10.084;2022-08-20T10:12:09;22.80;99.90
5154;DHT22;2595;53.584;10.084;2022-08-20T10:14:35;22.80;99.90
5154;DHT22;2595;53.584;10.084;2022-08-20T10:17:01;22.80;99.90
5154;DHT22;2595;53.584;10.084;2022-08-20T10:19:28;22.80;99.90
5154;DHT22;2595;53.584;10.084;2022-08-20T10:21:55;22.90;99.90
5154;DHT22;2595;53.584;10.084;2022-08-20T10:24:21;22.90;99.90
5154;DHT22;2595;53.584;10.084;2022-08-20T10:26:47;22.90;99.90
5154;DHT22;2595;53.584;10.084;2022-08-20T10:29:14;22.90;99.90
5154;DHT22;2595;53.584;10.084;2022-08-20T10:31:39;23.00;99.90
5154;DHT22;2595;53.584;10.084;2022-08-20T10:34:06;23.00;99.90
5154;DHT22;2595;53.584;10.084;2022-08-20T10:36:32;23.00;99.90
5154;DHT22;2595;53.584;10.084;2022-08-20T10:38:57;23.00;99.90
5154;DHT22;2595;53.584;10.084;2022-08-20T10:41:23;23.10;99.90
5154;DHT22;2595;53.584;10.084;2022-08-20T10:43:49;23.10;99.90
5154;DHT22;2595;53.584;10.084;2022-08-20T10:46:15;23.10;99.90
5154;DHT22;2595;53.584;10.084;2022-08-20T10:48:41;23.20;99.90
5154;DHT22;2595;53.584;10.084;2022-08-20T10:51:06;23.30;99.90
5154;DHT22;2595;53.584;10.084;2022-08-20T10:53:32;23.40;99.90
5154;DHT22;2595;53.584;10.084;2022-08-20T10:55:58;23.40;99.90
5154;DHT22;2595;53.584;10.084;2022-08-20T10:58:25;23.50;99.90
5154;DHT22;2595;53.584;10.084;2022-08-20T11:00:52;23.40;99.90
5154;DHT22;2595;53.584;10.084;2022-08-20T11:03:18;23.50;99.90
5154;DHT22;2595;53.584;10.084;2022-08-20T11:05:45;23.40;99.90
5154;DHT22;2595;53.584;10.084;2022-08-20T11:08:10;23.40;99.90
5154;DHT22;2595;53.584;10.084;2022-08-20T11:10:37;23.30;99.90
5154;DHT22;2595;53.584;10.084;2022-08-20T11:13:04;23.20;99.90
5154;DHT22;2595;53.584;10.084;2022-08-20T11:15:32;23.20;99.90
5154;DHT22;2595;53.584;10.084;2022-08-20T11:17:58;23.10;99.90
5154;DHT22;2595;53.584;10.084;2022-08-20T11:20:24;23.10;99.90
5154;DHT22;2595;53.584;10.084;2022-08-20T11:22:51;23.10;99.90
5154;DHT22;2595;53.584;10.084;2022-08-20T11:25:17;23.10;99.90
5154;DHT22;2595;53.584;10.084;2022-08-20T11:27:46;23.10;99.90
5154;DHT22;2595;53.584;10.084;2022-08-20T11:30:16;23.10;99.90
5154;DHT22;2595;53.584;10.084;2022-08-20T11:32:43;23.10;99.90
5154;DHT22;2595;53.584;10.084;2022-08-20T11:35:09;23.10;99.90
5154;DHT22;2595;53.584;10.084;2022-08-20T11:37:34;23.10;99.90
5154;DHT22;2595;53.584;10.084;2022-08-20T11:40:00;23.10;99.90
5154;DHT22;2595;53.584;10.084;2022-08-20T11:42:26;23.10;99.90
5154;DHT22;2595;53.584;10.084;2022-08-20T11:44:51;23.10;99.90
5154;DHT22;2595;53.584;10.084;2022-08-20T11:47:23;23.20;99.90
5154;DHT22;2595;53.584;10.084;2022-08-20T11:49:56;23.10;99.90
5154;DHT22;2595;53.584;10.084;2022-08-20T11:52:22;23.10;99.90
5154;DHT22;2595;53.584;10.084;2022-08-20T11:54:47;23.20;99.90
5154;DHT22;2595;53.584;10.084;2022-08-20T11:57:25;23.20;99.90
5154;DHT22;2595;53.584;10.084;2022-08-20T11:59:53;23.20;99.90
5154;DHT22;2595;53.584;10.084;2022-08-20T12:02:19;23.20;99.90
5154;DHT22;2595;53.584;10.084;2022-08-20T12:04:44;23.30;99.90
5154;DHT22;2595;53.584;10.084;2022-08-20T12:07:11;23.40;99.90
5154;DHT22;2595;53.584;10.084;2022-08-20T12:09:39;23.50;99.90
5154;DHT22;2595;53.584;10.084;2022-08-20T12:12:05;23.50;99.90
5154;DHT22;2595;53.584;10.084;2022-08-20T12:14:31;23.60;99.90
5154;DHT22;2595;53.584;10.084;2022-08-20T12:16:56;23.70;99.90
5154;DHT22;2595;53.584;10.084;2022-08-20T12:19:22;23.70;99.90
5154;DHT22;2595;53.584;10.084;2022-08-20T12:21:47;23.70;99.90
5154;DHT22;2595;53.584;10.084;2022-08-20T12:24:13;23.60;99.90
5154;DHT22;2595;53.584;10.084;2022-08-20T12:26:38;23.60;99.90
5154;DHT22;2595;53.584;10.084;2022-08-20T12:29:04;23.60;99.90
5154;DHT22;2595;53.584;10.084;2022-08-20T12:31:30;23.60;99.90
5154;DHT22;2595;53.584;10.084;2022-08-20T12:33:55;23.60;99.90
5154;DHT22;2595;53.584;10.084;2022-08-20T12:36:21;23.60;99.90
5154;DHT22;2595;53.584;10.084;2022-08-20T12:38:46;23.70;99.90
5154;DHT22;2595;53.584;10.084;2022-08-20T12:41:12;23.80;99.90
5154;DHT22;2595;53.584;10.084;2022-08-20T12:43:37;23.90;99.90
5154;DHT22;2595;53.584;10.084;2022-08-20T12:46:03;24.00;99.90
5154;DHT22;2595;53.584;10.084;2022-08-20T12:48:29;24.00;99.90
5154;DHT22;2595;53.584;10.084;2022-08-20T12:50:54;24.00;99.90
5154;DHT22;2595;53.584;10.084;2022-08-20T12:53:20;24.00;99.90
5154;DHT22;2595;53.584;10.084;2022-08-20T12:55:46;24.00;99.90
5154;DHT22;2595;53.584;10.084;2022-08-20T12:58:11;24.00;99.90
5154;DHT22;2595;53.584;10.084;2022-08-20T13:00:40;24.00;99.90
5154;DHT22;2595;53.584;10.084;2022-08-20T13:03:08;24.00;99.90
5154;DHT22;2595;53.584;10.084;2022-08-20T13:05:35;24.10;99.90
5154;DHT22;2595;53.584;10.084;2022-08-20T13:08:05;24.00;99.90
5154;DHT22;2595;53.584;10.084;2022-08-20T13:10:34;24.10;99.90
5154;DHT22;2595;53.584;10.084;2022-08-20T13:13:00;24.10;99.90
5154;DHT22;2595;53.584;10.084;2022-08-20T13:15:29;24.10;99.90
5154;DHT22;2595;53.584;10.084;2022-08-20T13:17:57;24.10;99.90
5154;DHT22;2595;53.584;10.084;2022-08-20T13:20:24;24.10;99.90
5154;DHT22;2595;53.584;10.084;2022-08-20T13:22:52;24.10;99.90
5154;DHT22;2595;53.584;10.084;2022-08-20T13:25:18;24.10;99.90
5154;DHT22;2595;53.584;10.084;2022-08-20T13:27:43;24.20;99.90
5154;DHT22;2595;53.584;10.084;2022-08-20T13:30:12;24.20;99.90
5154;DHT22;2595;53.584;10.084;2022-08-20T13:32:39;24.30;99.90
5154;DHT22;2595;53.584;10.084;2022-08-20T13:35:05;24.30;99.90
5154;DHT22;2595;53.584;10.084;2022-08-20T13:37:32;24.30;99.90
5154;DHT22;2595;53.584;10.084;2022-08-20T13:39:58;24.40;99.90
5154;DHT22;2595;53.584;10.084;2022-08-20T13:42:25;24.40;99.90
5154;DHT22;2595;53.584;10.084;2022-08-20T13:44:51;24.40;99.90
5154;DHT22;2595;53.584;10.084;2022-08-20T13:47:28;24.30;99.90
5154;DHT22;2595;53.584;10.084;2022-08-20T13:50:00;24.20;99.90
5154;DHT22;2595;53.584;10.084;2022-08-20T13:52:27;24.20;99.90
5154;DHT22;2595;53.584;10.084;2022-08-20T13:54:53;24.20;99.90
5154;DHT22;2595;53.584;10.084;2022-08-20T13:57:22;24.30;99.90
5154;DHT22;2595;53.584;10.084;2022-08-20T13:59:50;24.30;99.90
5154;DHT22;2595;53.584;10.084;2022-08-20T14:02:16;24.30;99.90
5154;DHT22;2595;53.584;10.084;2022-08-20T14:04:42;24.30;99.90
5154;DHT22;2595;53.584;10.084;2022-08-20T14:09:54;24.30;99.90
5154;DHT22;2595;53.584;10.084;2022-08-20T14:12:21;24.30;99.90
5154;DHT22;2595;53.584;10.084;2022-08-20T14:14:48;24.20;99.90
5154;DHT22;2595;53.584;10.084;2022-08-20T14:17:24;24.30;99.90
5154;DHT22;2595;53.584;10.084;2022-08-20T14:19:52;24.30;99.90
5154;DHT22;2595;53.584;10.084;2022-08-20T14:22:18;24.40;99.90
5154;DHT22;2595;53.584;10.084;2022-08-20T14:24:45;24.40;99.90
5154;DHT22;2595;53.584;10.084;2022-08-20T14:27:10;24.40;99.90
5154;DHT22;2595;53.584;10.084;2022-08-20T14:29:38;24.40;99.90
5154;DHT22;2595;53.584;10.084;2022-08-20T14:32:04;24.40;99.90
5154;DHT22;2595;53.584;10.084;2022-08-20T14:34:32;24.40;99.90
5154;DHT22;2595;53.584;10.084;2022-08-20T14:37:17;24.30;99.90
5154;DHT22;2595;53.584;10.084;2022-08-20T14:39:44;24.30;99.90
5154;DHT22;2595;53.584;10.084;2022-08-20T14:42:11;24.30;99.90
5154;DHT22;2595;53.584;10.084;2022-08-20T14:44:37;24.30;99.90
5154;DHT22;2595;53.584;10.084;2022-08-20T14:47:10;24.30;99.90
5154;DHT22;2595;53.584;10.084;2022-08-20T14:49:36;24.20;99.90
5154;DHT22;2595;53.584;10.084;2022-08-20T14:52:01;24.20;99.90
5154;DHT22;2595;53.584;10.084;2022-08-20T14:54:27;24.30;99.90
5154;DHT22;2595;53.584;10.084;2022-08-20T14:56:53;24.20;99.90
5154;DHT22;2595;53.584;10.084;2022-08-20T14:59:19;24.30;99.90
5154;DHT22;2595;53.584;10.084;2022-08-20T15:01:45;24.30;99.90
5154;DHT22;2595;53.584;10.084;2022-08-20T15:04:10;24.30;99.90
5154;DHT22;2595;53.584;10.084;2022-08-20T15:06:36;24.30;99.70
5154;DHT22;2595;53.584;10.084;2022-08-20T15:09:01;24.20;99.20
5154;DHT22;2595;53.584;10.084;2022-08-20T15:11:27;24.30;99.10
5154;DHT22;2595;53.584;10.084;2022-08-20T15:13:52;24.20;99.20
5154;DHT22;2595;53.584;10.084;2022-08-20T15:16:19;24.20;99.00
5154;DHT22;2595;53.584;10.084;2022-08-20T15:18:44;24.20;99.50
5154;DHT22;2595;53.584;10.084;2022-08-20T15:21:10;24.10;99.00
5154;DHT22;2595;53.584;10.084;2022-08-20T15:23:35;24.10;99.60
5154;DHT22;2595;53.584;10.084;2022-08-20T15:26:01;24.00;99.80
5154;DHT22;2595;53.584;10.084;2022-08-20T15:28:27;24.00;99.20
5154;DHT22;2595;53.584;10.084;2022-08-20T15:30:52;23.90;99.80
5154;DHT22;2595;53.584;10.084;2022-08-20T15:33:18;23.90;99.40
5154;DHT22;2595;53.584;10.084;2022-08-20T15:35:43;23.90;99.90
5154;DHT22;2595;53.584;10.084;2022-08-20T15:38:09;23.80;99.50
5154;DHT22;2595;53.584;10.084;2022-08-20T15:40:35;23.80;99.60
5154;DHT22;2595;53.584;10.084;2022-08-20T15:43:03;23.80;99.90
5154;DHT22;2595;53.584;10.084;2022-08-20T15:45:29;23.70;99.90
5154;DHT22;2595;53.584;10.084;2022-08-20T15:48:05;23.70;99.80
5154;DHT22;2595;53.584;10.084;2022-08-20T15:53:10;23.50;99.10
5154;DHT22;2595;53.584;10.084;2022-08-20T15:55:40;23.40;99.80
5154;DHT22;2595;53.584;10.084;2022-08-20T15:58:18;23.40;99.30
5154;DHT22;2595;53.584;10.084;2022-08-20T16:00:56;23.30;99.90
5154;DHT22;2595;53.584;10.084;2022-08-20T16:06:16;23.30;99.90